sensor_id;sensor_type;location;lat;lon;timestamp;pressure;altitude;pressure_sealevel;temperature;humidity
72308;BME280;60257;42.638;23.376;2023-05-22T00:02:23;94392.97;;;13.13;73.50
72308;BME280;60257;42.638;23.376;2023-05-22T00:04:49;94387.94;;;13.15;73.67
72308;BME280;60257;42.638;23.376;2023-05-22T00:07:15;94378.50;;;13.16;74.01
72308;BME280;60257;42.638;23.376;2023-05-22T00:09:40;94387.28;;;13.25;73.16
72308;BME280;60257;42.638;23.376;2023-05-22T00:12:06;94381.16;;;13.35;73.02
72308;BME280;60257;42.638;23.376;2023-05-22T00:14:31;94365.84;;;13.37;72.63
72308;BME280;60257;42.638;23.376;2023-05-22T00:16:57;94374.69;;;13.50;72.50
72308;BME280;60257;42.638;23.376;2023-05-22T00:19:24;94375.13;;;13.56;72.33
72308;BME280;60257;42.638;23.376;2023-05-22T00:21:50;94368.84;;;13.55;72.73
72308;BME280;60257;42.638;23.376;2023-05-22T00:24:16;94370.81;;;13.55;73.20
72308;BME280;60257;42.638;23.376;2023-05-22T00:26:41;94360.19;;;13.57;73.06
72308;BME280;60257;42.638;23.376;2023-05-22T00:29:06;94358.69;;;13.63;72.71
72308;BME280;60257;42.638;23.376;2023-05-22T00:31:32;94365.44;;;13.65;72.99
72308;BME280;60257;42.638;23.376;2023-05-22T00:33:58;94367.81;;;13.67;72.66
72308;BME280;60257;42.638;23.376;2023-05-22T00:36:23;94369.72;;;13.63;72.81
72308;BME280;60257;42.638;23.376;2023-05-22T00:38:49;94368.84;;;13.55;73.35
72308;BME280;60257;42.638;23.376;2023-05-22T00:41:15;94370.81;;;13.55;73.75
72308;BME280;60257;42.638;23.376;2023-05-22T00:43:40;94362.13;;;13.53;73.24
72308;BME280;60257;42.638;23.376;2023-05-22T00:46:06;94375.56;;;13.58;73.10
72308;BME280;60257;42.638;23.376;2023-05-22T00:48:36;94373.69;;;13.65;72.29
72308;BME280;60257;42.638;23.376;2023-05-22T00:51:02;94353.34;;;13.43;73.04
72308;BME280;60257;42.638;23.376;2023-05-22T00:53:29;94370.22;;;13.42;73.62
72308;BME280;60257;42.638;23.376;2023-05-22T00:55:56;94372.97;;;13.42;73.14
72308;BME280;60257;42.638;23.376;2023-05-22T00:58:25;94370.94;;;13.35;73.15
72308;BME280;60257;42.638;23.376;2023-05-22T01:00:51;94372.16;;;13.38;73.41
72308;BME280;60257;42.638;23.376;2023-05-22T01:03:16;94370.22;;;13.42;73.17
72308;BME280;60257;42.638;23.376;2023-05-22T01:05:43;94369.81;;;13.40;72.92
72308;BME280;60257;42.638;23.376;2023-05-22T01:08:09;94365.88;;;13.41;72.87
72308;BME280;60257;42.638;23.376;2023-05-22T01:10:36;94364.81;;;13.49;72.61
72308;BME280;60257;42.638;23.376;2023-05-22T01:13:14;94364.81;;;13.49;72.57
72308;BME280;60257;42.638;23.376;2023-05-22T01:15:51;94372.28;;;13.48;72.86
72308;BME280;60257;42.638;23.376;2023-05-22T01:21:16;94368.00;;;13.51;73.11
72308;BME280;60257;42.638;23.376;2023-05-22T01:32:36;94354.03;;;13.37;74.17
72308;BME280;60257;42.638;23.376;2023-05-22T01:35:09;94358.28;;;13.31;74.23
72308;BME280;60257;42.638;23.376;2023-05-22T01:37:37;94358.59;;;13.26;73.99
72308;BME280;60257;42.638;23.376;2023-05-22T01:40:03;94356.50;;;13.16;74.15
72308;BME280;60257;42.638;23.376;2023-05-22T01:42:31;94355.91;;;13.06;74.90
72308;BME280;60257;42.638;23.376;2023-05-22T01:44:56;94355.84;;;13.03;74.74
72308;BME280;60257;42.638;23.376;2023-05-22T01:47:22;94355.75;;;12.96;75.33
72308;BME280;60257;42.638;23.376;2023-05-22T01:49:47;94351.13;;;12.77;75.83
72308;BME280;60257;42.638;23.376;2023-05-22T01:55:05;94350.94;;;12.66;76.18
72308;BME280;60257;42.638;23.376;2023-05-22T01:57:46;94350.06;;;12.62;76.51
72308;BME280;60257;42.638;23.376;2023-05-22T02:00:14;94351.63;;;12.60;76.14
72308;BME280;60257;42.638;23.376;2023-05-22T02:02:47;94343.38;;;12.60;76.24
72308;BME280;60257;42.638;23.376;2023-05-22T02:05:15;94352.78;;;12.59;76.38
72308;BME280;60257;42.638;23.376;2023-05-22T02:07:43;94358.59;;;12.54;76.71
72308;BME280;60257;42.638;23.376;2023-05-22T02:10:12;94347.75;;;12.42;77.01
72308;BME280;60257;42.638;23.376;2023-05-22T02:12:38;94355.41;;;12.52;76.70
72308;BME280;60257;42.638;23.376;2023-05-22T02:15:05;94352.41;;;12.38;77.05
72308;BME280;60257;42.638;23.376;2023-05-22T02:17:41;94360.66;;;12.38;77.51
72308;BME280;60257;42.638;23.376;2023-05-22T02:20:11;94359.50;;;12.39;77.51
72308;BME280;60257;42.638;23.376;2023-05-22T02:22:44;94353.81;;;12.28;77.80
72308;BME280;60257;42.638;23.376;2023-05-22T02:25:14;94360.09;;;12.28;78.04
72308;BME280;60257;42.638;23.376;2023-05-22T02:27:44;94360.81;;;12.25;77.76
72308;BME280;60257;42.638;23.376;2023-05-22T02:30:11;94359.63;;;12.23;78.01
72308;BME280;60257;42.638;23.376;2023-05-22T02:32:40;94362.41;;;12.26;78.10
72308;BME280;60257;42.638;23.376;2023-05-22T02:35:06;94359.53;;;12.19;78.42
72308;BME280;60257;42.638;23.376;2023-05-22T02:37:32;94364.59;;;12.17;78.31
72308;BME280;60257;42.638;23.376;2023-05-22T02:39:57;94364.53;;;12.14;78.42
72308;BME280;60257;42.638;23.376;2023-05-22T02:42:23;94362.06;;;12.09;78.51
72308;BME280;60257;42.638;23.376;2023-05-22T02:44:49;94349.06;;;11.86;78.70
72308;BME280;60257;42.638;23.376;2023-05-22T02:47:14;94365.00;;;11.97;78.75
72308;BME280;60257;42.638;23.376;2023-05-22T02:49:40;94353.78;;;11.86;79.07
72308;BME280;60257;42.638;23.376;2023-05-22T02:52:06;94350.84;;;11.75;79.63
72308;BME280;60257;42.638;23.376;2023-05-22T02:54:31;94336.34;;;11.59;79.45
72308;BME280;60257;42.638;23.376;2023-05-22T02:56:57;94347.19;;;11.71;79.62
72308;BME280;60257;42.638;23.376;2023-05-22T02:59:22;94355.66;;;11.82;79.36
72308;BME280;60257;42.638;23.376;2023-05-22T03:01:48;94351.78;;;11.83;79.15
72308;BME280;60257;42.638;23.376;2023-05-22T03:04:13;94333.78;;;11.70;79.23
72308;BME280;60257;42.638;23.376;2023-05-22T03:06:39;94354.56;;;11.86;79.34
72308;BME280;60257;42.638;23.376;2023-05-22T03:09:05;94346.41;;;11.90;79.42
72308;BME280;60257;42.638;23.376;2023-05-22T03:11:33;94342.88;;;11.89;79.45
72308;BME280;60257;42.638;23.376;2023-05-22T03:13:58;94354.31;;;11.91;79.60
72308;BME280;60257;42.638;23.376;2023-05-22T03:16:24;94330.34;;;11.73;80.14
72308;BME280;60257;42.638;23.376;2023-05-22T03:19:06;94365.50;;;11.83;80.01
72308;BME280;60257;42.638;23.376;2023-05-22T03:21:32;94361.97;;;11.82;80.00
72308;BME280;60257;42.638;23.376;2023-05-22T03:23:57;94357.69;;;11.85;79.85
72308;BME280;60257;42.638;23.376;2023-05-22T03:26:22;94357.69;;;11.85;80.10
72308;BME280;60257;42.638;23.376;2023-05-22T03:28:48;94363.13;;;11.81;80.12
72308;BME280;60257;42.638;23.376;2023-05-22T03:31:14;94354.38;;;11.76;80.24
72308;BME280;60257;42.638;23.376;2023-05-22T03:33:40;94357.25;;;11.83;80.20
72308;BME280;60257;42.638;23.376;2023-05-22T03:36:06;94368.25;;;11.83;80.01
72308;BME280;60257;42.638;23.376;2023-05-22T03:38:31;94356.13;;;11.84;79.95
72308;BME280;60257;42.638;23.376;2023-05-22T03:40:57;94357.31;;;11.86;79.90
72308;BME280;60257;42.638;23.376;2023-05-22T03:43:22;94360.06;;;11.86;79.89
72308;BME280;60257;42.638;23.376;2023-05-22T03:45:48;94363.75;;;11.94;79.83
72308;BME280;60257;42.638;23.376;2023-05-22T03:48:13;94364.09;;;11.92;80.14
72308;BME280;60257;42.638;23.376;2023-05-22T03:50:39;94351.97;;;11.93;79.63
72308;BME280;60257;42.638;23.376;2023-05-22T03:53:04;94354.56;;;12.06;79.76
72308;BME280;60257;42.638;23.376;2023-05-22T03:55:30;94357.25;;;12.02;79.64
72308;BME280;60257;42.638;23.376;2023-05-22T03:57:55;94363.25;;;12.08;79.74
72308;BME280;60257;42.638;23.376;2023-05-22T04:00:21;94370.03;;;12.14;79.29
72308;BME280;60257;42.638;23.376;2023-05-22T04:02:47;94366.31;;;12.25;78.99
72308;BME280;60257;42.638;23.376;2023-05-22T04:05:15;94369.50;;;12.27;78.98
72308;BME280;60257;42.638;23.376;2023-05-22T04:07:40;94358.50;;;12.27;79.29
72308;BME280;60257;42.638;23.376;2023-05-22T04:10:06;94363.47;;;12.41;78.79
72308;BME280;60257;42.638;23.376;2023-05-22T04:12:32;94374.66;;;12.52;78.33
72308;BME280;60257;42.638;23.376;2023-05-22T04:14:58;94371.16;;;12.55;78.63
72308;BME280;60257;42.638;23.376;2023-05-22T04:17:25;94358.72;;;12.61;78.95
72308;BME280;60257;42.638;23.376;2023-05-22T04:19:55;94365.00;;;12.61;79.00
72308;BME280;60257;42.638;23.376;2023-05-22T04:22:22;94363.06;;;12.62;79.15
72308;BME280;60257;42.638;23.376;2023-05-22T04:24:48;94354.19;;;12.72;78.83
72308;BME280;60257;42.638;23.376;2023-05-22T04:27:14;94364.78;;;12.96;78.72
72308;BME280;60257;42.638;23.376;2023-05-22T04:29:39;94370.25;;;13.16;78.01
72308;BME280;60257;42.638;23.376;2023-05-22T04:32:06;94367.28;;;13.28;77.86
72308;BME280;60257;42.638;23.376;2023-05-22T04:34:35;94369.53;;;13.48;76.37
72308;BME280;60257;42.638;23.376;2023-05-22T04:37:02;94372.78;;;13.54;76.00
72308;BME280;60257;42.638;23.376;2023-05-22T04:39:28;94373.75;;;13.69;74.43
72308;BME280;60257;42.638;23.376;2023-05-22T04:41:53;94373.19;;;13.86;74.43
72308;BME280;60257;42.638;23.376;2023-05-22T04:44:19;94372.22;;;14.01;74.07
72308;BME280;60257;42.638;23.376;2023-05-22T04:46:48;94359.38;;;14.16;73.47
72308;BME280;60257;42.638;23.376;2023-05-22T04:49:14;94371.00;;;14.32;72.93
72308;BME280;60257;42.638;23.376;2023-05-22T04:51:40;94370.38;;;14.46;72.27
72308;BME280;60257;42.638;23.376;2023-05-22T04:54:05;94362.72;;;14.32;71.85
72308;BME280;60257;42.638;23.376;2023-05-22T04:56:31;94372.34;;;14.49;71.77
72308;BME280;60257;42.638;23.376;2023-05-22T04:58:56;94363.00;;;14.23;71.57
72308;BME280;60257;42.638;23.376;2023-05-22T05:01:22;94369.72;;;14.26;71.38
72308;BME280;60257;42.638;23.376;2023-05-22T05:03:49;94369.78;;;14.30;70.88
72308;BME280;60257;42.638;23.376;2023-05-22T05:06:14;94364.28;;;14.33;70.77
72308;BME280;60257;42.638;23.376;2023-05-22T05:08:41;94373.56;;;14.48;70.28
72308;BME280;60257;42.638;23.376;2023-05-22T05:11:08;94369.28;;;14.54;70.04
72308;BME280;60257;42.638;23.376;2023-05-22T05:13:34;94385.91;;;14.61;70.59
72308;BME280;60257;42.638;23.376;2023-05-22T05:15:59;94383.22;;;14.72;70.72
72308;BME280;60257;42.638;23.376;2023-05-22T05:18:25;94379.72;;;14.75;71.02
72308;BME280;60257;42.638;23.376;2023-05-22T05:20:52;94383.34;;;14.82;70.13
72308;BME280;60257;42.638;23.376;2023-05-22T05:23:17;94379.88;;;14.92;70.44
72308;BME280;60257;42.638;23.376;2023-05-22T05:25:43;94373.63;;;15.02;70.37
72308;BME280;60257;42.638;23.376;2023-05-22T05:28:08;94364.59;;;15.02;68.42
72308;BME280;60257;42.638;23.376;2023-05-22T05:30:37;94368.22;;;15.13;67.53
72308;BME280;60257;42.638;23.376;2023-05-22T05:33:03;94376.91;;;15.19;67.71
72308;BME280;60257;42.638;23.376;2023-05-22T05:35:29;94372.66;;;15.28;65.96
72308;BME280;60257;42.638;23.376;2023-05-22T05:37:54;94368.69;;;15.26;65.59
72308;BME280;60257;42.638;23.376;2023-05-22T05:40:20;94384.59;;;15.43;66.09
72308;BME280;60257;42.638;23.376;2023-05-22T05:42:45;94376.06;;;15.59;64.10
72308;BME280;60257;42.638;23.376;2023-05-22T05:45:12;94373.28;;;15.59;63.84
72308;BME280;60257;42.638;23.376;2023-05-22T05:47:37;94384.06;;;15.78;64.78
72308;BME280;60257;42.638;23.376;2023-05-22T05:50:03;94378.59;;;15.89;60.55
72308;BME280;60257;42.638;23.376;2023-05-22T05:52:28;94377.44;;;15.93;59.92
72308;BME280;60257;42.638;23.376;2023-05-22T05:54:57;94384.59;;;16.05;58.59
72308;BME280;60257;42.638;23.376;2023-05-22T05:57:22;94390.16;;;16.08;59.01
72308;BME280;60257;42.638;23.376;2023-05-22T05:59:48;94386.63;;;16.15;58.38
72308;BME280;60257;42.638;23.376;2023-05-22T06:02:13;94392.97;;;16.23;59.42
72308;BME280;60257;42.638;23.376;2023-05-22T06:04:39;94378.34;;;16.22;59.63
72308;BME280;60257;42.638;23.376;2023-05-22T06:07:04;94388.63;;;16.18;56.75
72308;BME280;60257;42.638;23.376;2023-05-22T06:09:30;94384.28;;;16.24;57.09
72308;BME280;60257;42.638;23.376;2023-05-22T06:11:55;94385.47;;;16.27;57.65
72308;BME280;60257;42.638;23.376;2023-05-22T06:14:22;94389.88;;;16.38;58.76
72308;BME280;60257;42.638;23.376;2023-05-22T06:16:47;94386.75;;;16.54;59.62
72308;BME280;60257;42.638;23.376;2023-05-22T06:19:13;94380.03;;;16.55;57.37
72308;BME280;60257;42.638;23.376;2023-05-22T06:21:39;94401.00;;;16.60;58.00
72308;BME280;60257;42.638;23.376;2023-05-22T06:24:04;94386.84;;;16.72;58.50
72308;BME280;60257;42.638;23.376;2023-05-22T06:26:30;94388.44;;;16.87;56.64
72308;BME280;60257;42.638;23.376;2023-05-22T06:28:56;94396.34;;;17.06;56.87
72308;BME280;60257;42.638;23.376;2023-05-22T06:31:21;94396.75;;;17.22;57.08
72308;BME280;60257;42.638;23.376;2023-05-22T06:33:47;94388.06;;;17.42;56.00
72308;BME280;60257;42.638;23.376;2023-05-22T06:36:12;94396.75;;;17.08;53.31
72308;BME280;60257;42.638;23.376;2023-05-22T06:38:38;94386.47;;;17.02;53.89
72308;BME280;60257;42.638;23.376;2023-05-22T06:41:04;94387.28;;;17.02;53.89
72308;BME280;60257;42.638;23.376;2023-05-22T06:43:30;94386.47;;;17.41;54.08
72308;BME280;60257;42.638;23.376;2023-05-22T06:45:55;94382.09;;;17.68;55.23
72308;BME280;60257;42.638;23.376;2023-05-22T06:48:21;94386.03;;;17.85;55.54
72308;BME280;60257;42.638;23.376;2023-05-22T06:50:46;94381.59;;;18.12;55.40
72308;BME280;60257;42.638;23.376;2023-05-22T06:53:12;94383.88;;;18.42;55.15
72308;BME280;60257;42.638;23.376;2023-05-22T06:55:37;94387.75;;;18.59;52.95
72308;BME280;60257;42.638;23.376;2023-05-22T06:58:03;94381.38;;;18.69;50.39
72308;BME280;60257;42.638;23.376;2023-05-22T07:00:29;94376.47;;;18.91;49.39
72308;BME280;60257;42.638;23.376;2023-05-22T07:02:54;94379.19;;;19.01;48.76
72308;BME280;60257;42.638;23.376;2023-05-22T07:05:20;94380.31;;;19.11;48.22
72308;BME280;60257;42.638;23.376;2023-05-22T07:07:45;94385.81;;;19.18;47.80
72308;BME280;60257;42.638;23.376;2023-05-22T07:10:11;94382.75;;;18.98;47.65
72308;BME280;60257;42.638;23.376;2023-05-22T07:12:37;94389.00;;;19.13;47.69
72308;BME280;60257;42.638;23.376;2023-05-22T07:15:02;94383.53;;;19.02;46.12
72308;BME280;60257;42.638;23.376;2023-05-22T07:17:28;94377.34;;;18.80;46.79
72308;BME280;60257;42.638;23.376;2023-05-22T07:19:53;94374.91;;;18.86;47.21
72308;BME280;60257;42.638;23.376;2023-05-22T07:22:19;94379.94;;;19.05;47.02
72308;BME280;60257;42.638;23.376;2023-05-22T07:24:44;94377.03;;;19.27;46.52
72308;BME280;60257;42.638;23.376;2023-05-22T07:27:11;94381.06;;;19.18;47.09
72308;BME280;60257;42.638;23.376;2023-05-22T07:29:37;94377.88;;;19.20;48.02
72308;BME280;60257;42.638;23.376;2023-05-22T07:32:03;94382.56;;;19.27;47.54
72308;BME280;60257;42.638;23.376;2023-05-22T07:34:28;94383.00;;;19.21;45.92
72308;BME280;60257;42.638;23.376;2023-05-22T07:37:07;94381.06;;;19.15;46.33
72308;BME280;60257;42.638;23.376;2023-05-22T07:39:33;94379.19;;;19.01;49.02
72308;BME280;60257;42.638;23.376;2023-05-22T07:41:59;94374.13;;;18.89;48.64
72308;BME280;60257;42.638;23.376;2023-05-22T07:44:24;94379.22;;;18.94;49.23
72308;BME280;60257;42.638;23.376;2023-05-22T07:46:50;94378.44;;;18.94;48.47
72308;BME280;60257;42.638;23.376;2023-05-22T07:49:16;94383.19;;;18.97;48.79
72308;BME280;60257;42.638;23.376;2023-05-22T07:51:44;94372.91;;;18.90;49.57
72308;BME280;60257;42.638;23.376;2023-05-22T07:54:10;94377.66;;;18.93;48.97
72308;BME280;60257;42.638;23.376;2023-05-22T07:56:35;94374.66;;;18.59;49.97
72308;BME280;60257;42.638;23.376;2023-05-22T07:59:04;94378.16;;;18.77;49.34
72308;BME280;60257;42.638;23.376;2023-05-22T08:01:31;94378.91;;;18.81;49.62
72308;BME280;60257;42.638;23.376;2023-05-22T08:03:57;94373.81;;;18.69;48.77
72308;BME280;60257;42.638;23.376;2023-05-22T08:06:22;94368.66;;;18.68;49.22
72308;BME280;60257;42.638;23.376;2023-05-22T08:08:49;94377.72;;;18.82;49.30
72308;BME280;60257;42.638;23.376;2023-05-22T08:11:14;94377.59;;;19.00;48.27
72308;BME280;60257;42.638;23.376;2023-05-22T08:13:39;94371.63;;;19.02;47.85
72308;BME280;60257;42.638;23.376;2023-05-22T08:16:05;94378.72;;;19.10;48.04
72308;BME280;60257;42.638;23.376;2023-05-22T08:18:31;94373.88;;;19.21;49.01
72308;BME280;60257;42.638;23.376;2023-05-22T08:20:56;94372.59;;;19.33;47.64
72308;BME280;60257;42.638;23.376;2023-05-22T08:23:22;94368.63;;;19.30;47.17
72308;BME280;60257;42.638;23.376;2023-05-22T08:25:47;94370.94;;;19.42;47.58
72308;BME280;60257;42.638;23.376;2023-05-22T08:28:14;94365.38;;;19.42;47.45
72308;BME280;60257;42.638;23.376;2023-05-22T08:30:39;94370.94;;;19.42;45.06
72308;BME280;60257;42.638;23.376;2023-05-22T08:33:05;94370.13;;;19.42;46.25
72308;BME280;60257;42.638;23.376;2023-05-22T08:35:30;94367.72;;;19.47;46.19
72308;BME280;60257;42.638;23.376;2023-05-22T08:37:56;94374.81;;;19.55;45.50
72308;BME280;60257;42.638;23.376;2023-05-22T08:40:22;94365.59;;;19.62;46.47
72308;BME280;60257;42.638;23.376;2023-05-22T08:42:48;94377.44;;;19.73;45.85
72308;BME280;60257;42.638;23.376;2023-05-22T08:45:18;94372.44;;;19.54;44.10
72308;BME280;60257;42.638;23.376;2023-05-22T08:47:46;94371.50;;;19.68;44.69
72308;BME280;60257;42.638;23.376;2023-05-22T08:50:16;94368.91;;;19.46;43.89
72308;BME280;60257;42.638;23.376;2023-05-22T08:52:50;94362.91;;;19.51;44.25
72308;BME280;60257;42.638;23.376;2023-05-22T08:55:16;94362.75;;;19.69;44.13
72308;BME280;60257;42.638;23.376;2023-05-22T08:57:44;94366.31;;;20.07;40.92
72308;BME280;60257;42.638;23.376;2023-05-22T09:00:11;94354.00;;;20.08;38.92
72308;BME280;60257;42.638;23.376;2023-05-22T09:02:37;94370.38;;;19.99;38.75
72308;BME280;60257;42.638;23.376;2023-05-22T09:05:06;94362.59;;;19.83;38.77
72308;BME280;60257;42.638;23.376;2023-05-22T09:07:31;94354.94;;;19.94;38.71
72308;BME280;60257;42.638;23.376;2023-05-22T09:09:57;94364.31;;;20.11;39.26
72308;BME280;60257;42.638;23.376;2023-05-22T09:12:24;94363.66;;;20.34;39.96
72308;BME280;60257;42.638;23.376;2023-05-22T09:14:51;94358.03;;;20.68;39.57
72308;BME280;60257;42.638;23.376;2023-05-22T09:17:19;94362.53;;;20.89;38.65
72308;BME280;60257;42.638;23.376;2023-05-22T09:19:46;94354.53;;;21.21;38.95
72308;BME280;60257;42.638;23.376;2023-05-22T09:22:12;94354.63;;;21.37;38.37
72308;BME280;60257;42.638;23.376;2023-05-22T09:24:41;94362.91;;;21.44;36.63
72308;BME280;60257;42.638;23.376;2023-05-22T09:27:08;94356.59;;;21.64;36.90
72308;BME280;60257;42.638;23.376;2023-05-22T09:29:51;94352.44;;;21.72;36.59
72308;BME280;60257;42.638;23.376;2023-05-22T09:32:18;94344.03;;;21.75;40.35
72308;BME280;60257;42.638;23.376;2023-05-22T09:34:44;94349.16;;;22.00;39.69
72308;BME280;60257;42.638;23.376;2023-05-22T09:37:11;94356.34;;;22.21;37.18
72308;BME280;60257;42.638;23.376;2023-05-22T09:39:38;94356.34;;;22.21;38.31
72308;BME280;60257;42.638;23.376;2023-05-22T09:42:08;94350.69;;;22.24;36.45
72308;BME280;60257;42.638;23.376;2023-05-22T09:44:36;94345.09;;;22.24;37.22
72308;BME280;60257;42.638;23.376;2023-05-22T09:47:02;94358.78;;;22.39;37.56
72308;BME280;60257;42.638;23.376;2023-05-22T09:49:28;94354.72;;;22.43;36.57
72308;BME280;60257;42.638;23.376;2023-05-22T09:51:53;94356.50;;;22.34;36.50
72308;BME280;60257;42.638;23.376;2023-05-22T09:54:19;94355.72;;;22.33;37.58
72308;BME280;60257;42.638;23.376;2023-05-22T09:56:49;94352.22;;;22.29;36.93
72308;BME280;60257;42.638;23.376;2023-05-22T09:59:19;94355.44;;;22.27;36.94
72308;BME280;60257;42.638;23.376;2023-05-22T10:01:50;94355.56;;;22.20;36.79
72308;BME280;60257;42.638;23.376;2023-05-22T10:04:18;94360.19;;;22.07;38.90
72308;BME280;60257;42.638;23.376;2023-05-22T10:06:49;94354.34;;;22.21;38.50
72308;BME280;60257;42.638;23.376;2023-05-22T10:09:17;94360.66;;;22.25;39.03
72308;BME280;60257;42.638;23.376;2023-05-22T10:11:43;94353.19;;;22.58;37.27
72308;BME280;60257;42.638;23.376;2023-05-22T10:14:10;94361.44;;;22.65;37.18
72308;BME280;60257;42.638;23.376;2023-05-22T10:16:37;94353.09;;;22.62;36.22
72308;BME280;60257;42.638;23.376;2023-05-22T10:19:03;94358.69;;;22.22;36.96
72308;BME280;60257;42.638;23.376;2023-05-22T10:21:29;94363.94;;;22.20;35.86
72308;BME280;60257;42.638;23.376;2023-05-22T10:23:58;94372.22;;;21.81;36.29
72308;BME280;60257;42.638;23.376;2023-05-22T10:26:26;94367.75;;;21.40;39.77
72308;BME280;60257;42.638;23.376;2023-05-22T10:29:06;94363.84;;;20.81;42.40
72308;BME280;60257;42.638;23.376;2023-05-22T10:32:27;94381.47;;;20.44;42.98
72308;BME280;60257;42.638;23.376;2023-05-22T10:37:48;94382.84;;;18.88;51.59
72308;BME280;60257;42.638;23.376;2023-05-22T10:40:23;94389.06;;;18.33;53.98
72308;BME280;60257;42.638;23.376;2023-05-22T10:43:00;94389.59;;;17.92;57.89
72308;BME280;60257;42.638;23.376;2023-05-22T10:45:27;94390.34;;;18.03;59.09
72308;BME280;60257;42.638;23.376;2023-05-22T10:48:02;94387.16;;;18.08;59.14
72308;BME280;60257;42.638;23.376;2023-05-22T10:50:28;94382.28;;;18.41;60.16
72308;BME280;60257;42.638;23.376;2023-05-22T10:53:26;94375.38;;;18.77;59.46
72308;BME280;60257;42.638;23.376;2023-05-22T10:55:52;94373.84;;;19.25;58.45
72308;BME280;60257;42.638;23.376;2023-05-22T10:58:38;94366.38;;;19.66;57.53
72308;BME280;60257;42.638;23.376;2023-05-22T11:01:16;94365.41;;;20.17;57.31
72308;BME280;60257;42.638;23.376;2023-05-22T11:04:09;94365.06;;;20.49;57.51
72308;BME280;60257;42.638;23.376;2023-05-22T11:06:44;94363.94;;;19.68;57.31
72308;BME280;60257;42.638;23.376;2023-05-22T11:09:16;94364.66;;;20.13;57.60
72308;BME280;60257;42.638;23.376;2023-05-22T11:11:43;94360.47;;;20.32;54.97
72308;BME280;60257;42.638;23.376;2023-05-22T11:14:11;94353.38;;;20.27;54.72
72308;BME280;60257;42.638;23.376;2023-05-22T11:16:38;94356.09;;;20.65;52.69
72308;BME280;60257;42.638;23.376;2023-05-22T11:19:08;94379.97;;;20.66;53.32
72308;BME280;60257;42.638;23.376;2023-05-22T11:21:36;94382.69;;;20.39;50.33
72308;BME280;60257;42.638;23.376;2023-05-22T11:24:06;94373.84;;;19.73;50.64
72308;BME280;60257;42.638;23.376;2023-05-22T11:26:32;94384.53;;;19.30;51.01
72308;BME280;60257;42.638;23.376;2023-05-22T11:28:59;94380.44;;;18.90;50.85
72308;BME280;60257;42.638;23.376;2023-05-22T11:31:25;94398.34;;;18.81;49.90
72308;BME280;60257;42.638;23.376;2023-05-22T11:33:52;94410.31;;;18.71;51.58
72308;BME280;60257;42.638;23.376;2023-05-22T11:36:17;94414.69;;;18.69;52.56
72308;BME280;60257;42.638;23.376;2023-05-22T11:38:43;94424.63;;;18.70;52.56
72308;BME280;60257;42.638;23.376;2023-05-22T11:41:09;94410.47;;;18.32;53.28
72308;BME280;60257;42.638;23.376;2023-05-22T11:43:36;94428.69;;;18.37;54.78
72308;BME280;60257;42.638;23.376;2023-05-22T11:46:08;94427.94;;;18.22;55.89
72308;BME280;60257;42.638;23.376;2023-05-22T11:48:39;94421.66;;;17.97;58.89
72308;BME280;60257;42.638;23.376;2023-05-22T11:51:04;94424.88;;;17.78;60.29
72308;BME280;60257;42.638;23.376;2023-05-22T11:53:31;94414.22;;;17.73;62.11
72308;BME280;60257;42.638;23.376;2023-05-22T11:56:04;94424.47;;;17.58;62.59
72308;BME280;60257;42.638;23.376;2023-05-22T11:58:31;94424.09;;;17.52;63.45
72308;BME280;60257;42.638;23.376;2023-05-22T12:01:01;94413.78;;;17.56;63.38
72308;BME280;60257;42.638;23.376;2023-05-22T12:03:28;94425.28;;;17.44;64.17
72308;BME280;60257;42.638;23.376;2023-05-22T12:05:55;94423.69;;;17.36;62.93
72308;BME280;60257;42.638;23.376;2023-05-22T12:08:24;94425.25;;;16.98;62.26
72308;BME280;60257;42.638;23.376;2023-05-22T12:10:50;94428.41;;;16.86;64.61
72308;BME280;60257;42.638;23.376;2023-05-22T12:13:27;94423.22;;;16.77;67.85
72308;BME280;60257;42.638;23.376;2023-05-22T12:15:54;94419.25;;;16.71;67.21
72308;BME280;60257;42.638;23.376;2023-05-22T12:18:21;94420.81;;;16.65;68.17
72308;BME280;60257;42.638;23.376;2023-05-22T12:20:50;94418.09;;;16.79;68.33
72308;BME280;60257;42.638;23.376;2023-05-22T12:23:23;94420.50;;;16.95;66.68
72308;BME280;60257;42.638;23.376;2023-05-22T12:26:00;94422.88;;;17.14;66.84
72308;BME280;60257;42.638;23.376;2023-05-22T12:28:26;94409.44;;;17.38;70.15
72308;BME280;60257;42.638;23.376;2023-05-22T12:30:53;94395.19;;;17.67;65.84
72308;BME280;60257;42.638;23.376;2023-05-22T12:33:24;94393.56;;;17.88;64.43
72308;BME280;60257;42.638;23.376;2023-05-22T12:35:49;94398.22;;;18.26;63.12
72308;BME280;60257;42.638;23.376;2023-05-22T12:38:19;94392.13;;;18.53;64.69
72308;BME280;60257;42.638;23.376;2023-05-22T12:40:45;94388.41;;;18.84;65.28
72308;BME280;60257;42.638;23.376;2023-05-22T12:43:11;94386.22;;;19.16;63.30
72308;BME280;60257;42.638;23.376;2023-05-22T12:45:37;94382.56;;;19.27;60.50
72308;BME280;60257;42.638;23.376;2023-05-22T12:48:05;94386.97;;;19.24;59.42
72308;BME280;60257;42.638;23.376;2023-05-22T12:50:31;94384.84;;;19.42;58.48
72308;BME280;60257;42.638;23.376;2023-05-22T12:52:56;94371.94;;;19.66;59.53
72308;BME280;60257;42.638;23.376;2023-05-22T12:55:22;94379.34;;;19.80;56.23
72308;BME280;60257;42.638;23.376;2023-05-22T12:57:47;94373.94;;;20.03;55.97
72308;BME280;60257;42.638;23.376;2023-05-22T13:00:13;94378.09;;;20.22;47.05
72308;BME280;60257;42.638;23.376;2023-05-22T13:02:38;94374.41;;;20.35;44.80
72308;BME280;60257;42.638;23.376;2023-05-22T13:05:05;94372.16;;;20.20;45.00
72308;BME280;60257;42.638;23.376;2023-05-22T13:07:30;94374.09;;;20.23;44.83
72308;BME280;60257;42.638;23.376;2023-05-22T13:09:56;94378.16;;;20.15;44.55